Portada
METAR-TAF:

METAR-TAF

Aeropuertos :

Pratica Di Mare, Italia

latitud: 41-39N, longitud: 012-27E, altitud: 6 m

METAR: falta

Hora: 21:30 (20:30 UTC)

Pronóstico

El informe se hizo hace 27 horas y 30 minutos, a las 17:00 UTC
Pronóstico válido del 20 a las 18 UTC al 21 a las 03 UTC
Viento 14 kt del sureste
Visibilidad 10 km o más
Nubes dispersas a una altura de 2500 ft
Nubes dispersas a una altura de 4000 ft
Temporalmente
del 20 a las 18 UTC al 20 a las 24 UTC
lluvia

TAF: LIRE 201700Z 2018/2103 14014KT 9999 SCT025 SCT040 TEMPO 2018/2024 RA

Observaciones y pronósticos meteorológicos de más de 4000 aeropuertos (mensajes METAR y TAF).

Los puntos amarillos y rojos representan las estaciones disponibles.

Ponga el ratón en el punto deseado para ver el nombre de la estación.

Haga clic para ver las observaciones y los pronósticos meteorológicos.

Para cambiar el mapa : haga clic en los botones verdes con una cruz de color negro para hacer un zoom, en el botón verde con un guión para alejar o en las flechas verdes para mapas adyacentes.


METAR-TAF: